sensor_id;sensor_type;location;lat;lon;timestamp;pressure;altitude;pressure_sealevel;temperature;humidity
16431;BME280;8325;49.284;7.238;2024-02-26T05:04:57;96744.56;;;5.68;100.00
16431;BME280;8325;49.284;7.238;2024-02-26T05:09:09;96745.78;;;5.72;100.00
16431;BME280;8325;49.284;7.238;2024-02-26T05:13:21;96752.16;;;5.69;100.00
16431;BME280;8325;49.284;7.238;2024-02-26T05:17:32;96750.56;;;5.68;100.00
16431;BME280;8325;49.284;7.238;2024-02-26T05:21:45;96747.72;;;5.63;100.00
16431;BME280;8325;49.284;7.238;2024-02-26T05:25:58;96755.47;;;5.63;100.00
16431;BME280;8325;49.284;7.238;2024-02-26T05:30:10;96750.50;;;5.62;100.00
16431;BME280;8325;49.284;7.238;2024-02-26T05:34:22;96732.78;;;5.65;100.00
16431;BME280;8325;49.284;7.238;2024-02-26T05:38:34;96735.81;;;5.69;100.00
16431;BME280;8325;49.284;7.238;2024-02-26T05:42:46;96735.63;;;5.70;100.00
16431;BME280;8325;49.284;7.238;2024-02-26T05:46:57;96740.00;;;5.70;100.00
16431;BME280;8325;49.284;7.238;2024-02-26T05:51:09;96747.84;;;5.76;100.00
16431;BME280;8325;49.284;7.238;2024-02-26T05:55:21;96751.72;;;5.66;100.00
16431;BME280;8325;49.284;7.238;2024-02-26T05:59:32;96755.19;;;5.73;100.00
16431;BME280;8325;49.284;7.238;2024-02-26T06:03:44;96757.19;;;5.77;100.00
16431;BME280;8325;49.284;7.238;2024-02-26T06:07:56;96766.94;;;5.75;100.00
16431;BME280;8325;49.284;7.238;2024-02-26T06:12:08;96773.13;;;5.74;100.00
16431;BME280;8325;49.284;7.238;2024-02-26T06:16:19;96771.16;;;5.76;100.00
16431;BME280;8325;49.284;7.238;2024-02-26T06:20:31;96780.16;;;5.81;100.00
16431;BME280;8325;49.284;7.238;2024-02-26T06:24:42;96774.34;;;5.78;100.00
16431;BME280;8325;49.284;7.238;2024-02-26T06:28:55;96768.63;;;5.83;100.00
16431;BME280;8325;49.284;7.238;2024-02-26T06:33:06;96770.41;;;5.83;100.00
16431;BME280;8325;49.284;7.238;2024-02-26T06:37:18;96765.78;;;5.78;100.00
16431;BME280;8325;49.284;7.238;2024-02-26T06:41:30;96769.97;;;5.79;100.00
16431;BME280;8325;49.284;7.238;2024-02-26T06:45:41;96786.69;;;5.76;100.00
16431;BME280;8325;49.284;7.238;2024-02-26T06:49:53;96786.13;;;5.81;100.00
16431;BME280;8325;49.284;7.238;2024-02-26T06:54:05;96795.56;;;5.89;100.00
16431;BME280;8325;49.284;7.238;2024-02-26T06:58:17;96803.72;;;5.86;100.00
16431;BME280;8325;49.284;7.238;2024-02-26T07:02:28;96808.09;;;5.85;100.00
16431;BME280;8325;49.284;7.238;2024-02-26T07:06:40;96807.34;;;5.91;100.00
16431;BME280;8325;49.284;7.238;2024-02-26T07:10:53;96815.66;;;5.87;100.00
16431;BME280;8325;49.284;7.238;2024-02-26T07:15:05;96821.06;;;5.85;100.00
16431;BME280;8325;49.284;7.238;2024-02-26T07:19:19;96820.16;;;5.93;100.00
16431;BME280;8325;49.284;7.238;2024-02-26T07:23:31;96823.28;;;5.88;100.00
16431;BME280;8325;49.284;7.238;2024-02-26T07:27:43;96814.59;;;5.96;100.00
16431;BME280;8325;49.284;7.238;2024-02-26T07:31:55;96830.50;;;5.93;100.00
16431;BME280;8325;49.284;7.238;2024-02-26T07:36:07;96829.69;;;5.92;100.00
16431;BME280;8325;49.284;7.238;2024-02-26T07:40:19;96835.31;;;5.96;100.00
16431;BME280;8325;49.284;7.238;2024-02-26T07:44:30;96843.72;;;5.98;100.00
16431;BME280;8325;49.284;7.238;2024-02-26T07:48:42;96848.28;;;5.96;100.00
16431;BME280;8325;49.284;7.238;2024-02-26T07:52:54;96850.75;;;6.04;100.00
16431;BME280;8325;49.284;7.238;2024-02-26T07:57:06;96862.09;;;6.03;100.00
16431;BME280;8325;49.284;7.238;2024-02-26T08:01:18;96863.94;;;6.09;100.00
16431;BME280;8325;49.284;7.238;2024-02-26T08:05:30;96863.00;;;6.17;100.00
16431;BME280;8325;49.284;7.238;2024-02-26T08:09:42;96860.47;;;6.23;100.00
16431;BME280;8325;49.284;7.238;2024-02-26T08:13:53;96850.81;;;6.39;100.00
16431;BME280;8325;49.284;7.238;2024-02-26T08:18:05;96856.72;;;6.54;100.00
16431;BME280;8325;49.284;7.238;2024-02-26T08:22:17;96866.50;;;6.59;100.00
16431;BME280;8325;49.284;7.238;2024-02-26T08:26:29;96885.44;;;6.81;100.00
16431;BME280;8325;49.284;7.238;2024-02-26T08:30:40;96881.06;;;6.88;100.00
16431;BME280;8325;49.284;7.238;2024-02-26T08:34:52;96886.72;;;6.98;100.00
16431;BME280;8325;49.284;7.238;2024-02-26T08:39:04;96873.34;;;7.01;100.00
16431;BME280;8325;49.284;7.238;2024-02-26T08:43:16;96885.16;;;7.10;100.00
16431;BME280;8325;49.284;7.238;2024-02-26T08:47:27;96886.03;;;7.18;100.00
16431;BME280;8325;49.284;7.238;2024-02-26T08:51:42;96883.50;;;7.37;100.00
16431;BME280;8325;49.284;7.238;2024-02-26T08:55:55;96892.16;;;7.51;100.00
16431;BME280;8325;49.284;7.238;2024-02-26T09:00:07;96901.38;;;7.60;100.00
16431;BME280;8325;49.284;7.238;2024-02-26T09:04:19;96905.03;;;7.73;100.00
16431;BME280;8325;49.284;7.238;2024-02-26T09:08:31;96902.44;;;7.86;100.00
16431;BME280;8325;49.284;7.238;2024-02-26T09:12:42;96911.66;;;7.95;100.00
16431;BME280;8325;49.284;7.238;2024-02-26T09:16:54;96925.84;;;7.93;100.00
16431;BME280;8325;49.284;7.238;2024-02-26T09:21:06;96925.63;;;7.94;100.00
16431;BME280;8325;49.284;7.238;2024-02-26T09:25:18;96914.25;;;7.95;100.00
16431;BME280;8325;49.284;7.238;2024-02-26T09:29:29;96920.28;;;8.16;100.00
16431;BME280;8325;49.284;7.238;2024-02-26T09:33:41;96919.94;;;8.39;100.00
16431;BME280;8325;49.284;7.238;2024-02-26T09:37:53;96919.53;;;8.55;100.00
16431;BME280;8325;49.284;7.238;2024-02-26T09:42:05;96927.75;;;8.59;100.00
16431;BME280;8325;49.284;7.238;2024-02-26T09:46:21;96930.75;;;8.49;100.00
16431;BME280;8325;49.284;7.238;2024-02-26T09:50:33;96931.97;;;8.60;100.00
16431;BME280;8325;49.284;7.238;2024-02-26T09:54:48;96936.16;;;8.74;100.00
16431;BME280;8325;49.284;7.238;2024-02-26T09:59:01;96935.94;;;8.82;100.00
16431;BME280;8325;49.284;7.238;2024-02-26T10:03:15;96933.56;;;8.81;100.00
16431;BME280;8325;49.284;7.238;2024-02-26T10:07:28;96934.94;;;8.96;100.00
16431;BME280;8325;49.284;7.238;2024-02-26T10:11:41;96945.31;;;9.16;100.00
16431;BME280;8325;49.284;7.238;2024-02-26T10:15:54;96952.69;;;9.39;100.00
16431;BME280;8325;49.284;7.238;2024-02-26T10:20:17;96941.16;;;9.60;100.00
16431;BME280;8325;49.284;7.238;2024-02-26T10:24:35;96946.91;;;9.82;100.00
16431;BME280;8325;49.284;7.238;2024-02-26T10:28:47;96955.03;;;9.61;100.00
16431;BME280;8325;49.284;7.238;2024-02-26T10:33:07;96954.50;;;9.84;100.00
16431;BME280;8325;49.284;7.238;2024-02-26T10:37:20;96956.25;;;9.97;100.00
16431;BME280;8325;49.284;7.238;2024-02-26T10:41:35;96963.25;;;10.03;100.00
16431;BME280;8325;49.284;7.238;2024-02-26T10:45:47;96960.38;;;9.79;100.00
16431;BME280;8325;49.284;7.238;2024-02-26T10:49:59;96965.69;;;9.98;100.00
16431;BME280;8325;49.284;7.238;2024-02-26T10:54:16;96972.41;;;10.12;100.00
16431;BME280;8325;49.284;7.238;2024-02-26T10:58:28;96987.50;;;10.10;100.00
16431;BME280;8325;49.284;7.238;2024-02-26T11:02:41;96986.16;;;9.94;100.00
16431;BME280;8325;49.284;7.238;2024-02-26T11:06:53;96982.09;;;10.05;100.00
16431;BME280;8325;49.284;7.238;2024-02-26T11:11:07;96975.72;;;10.01;100.00
16431;BME280;8325;49.284;7.238;2024-02-26T11:15:20;96990.03;;;10.23;100.00
16431;BME280;8325;49.284;7.238;2024-02-26T11:19:35;97000.78;;;10.40;100.00
16431;BME280;8325;49.284;7.238;2024-02-26T11:23:49;97006.56;;;10.49;100.00
16431;BME280;8325;49.284;7.238;2024-02-26T11:28:04;97008.69;;;10.58;100.00
16431;BME280;8325;49.284;7.238;2024-02-26T11:32:17;97008.47;;;10.67;100.00
16431;BME280;8325;49.284;7.238;2024-02-26T11:36:30;97014.69;;;10.66;100.00
16431;BME280;8325;49.284;7.238;2024-02-26T11:40:41;97011.88;;;10.67;100.00
16431;BME280;8325;49.284;7.238;2024-02-26T11:44:54;97004.34;;;10.77;100.00
16431;BME280;8325;49.284;7.238;2024-02-26T11:53:46;97007.91;;;11.08;100.00
16431;BME280;8325;49.284;7.238;2024-02-26T11:57:59;97004.00;;;11.17;100.00
16431;BME280;8325;49.284;7.238;2024-02-26T12:02:11;97000.88;;;11.34;100.00
16431;BME280;8325;49.284;7.238;2024-02-26T12:06:24;97010.88;;;11.37;100.00
16431;BME280;8325;49.284;7.238;2024-02-26T12:10:38;97002.03;;;11.38;100.00
16431;BME280;8325;49.284;7.238;2024-02-26T12:14:52;97001.00;;;11.57;100.00
16431;BME280;8325;49.284;7.238;2024-02-26T12:19:09;97000.31;;;11.87;100.00
16431;BME280;8325;49.284;7.238;2024-02-26T12:23:21;97014.44;;;11.86;100.00
16431;BME280;8325;49.284;7.238;2024-02-26T12:27:33;97010.78;;;11.87;100.00
16431;BME280;8325;49.284;7.238;2024-02-26T12:31:45;97011.78;;;11.67;99.90
16431;BME280;8325;49.284;7.238;2024-02-26T12:35:57;97009.88;;;11.56;98.77
16431;BME280;8325;49.284;7.238;2024-02-26T12:40:11;97015.09;;;11.56;100.00
16431;BME280;8325;49.284;7.238;2024-02-26T12:44:26;97017.97;;;11.55;100.00
16431;BME280;8325;49.284;7.238;2024-02-26T12:48:39;97016.25;;;11.60;99.29
16431;BME280;8325;49.284;7.238;2024-02-26T12:52:51;97014.97;;;11.69;98.94
16431;BME280;8325;49.284;7.238;2024-02-26T12:57:04;97026.03;;;11.90;99.50
16431;BME280;8325;49.284;7.238;2024-02-26T13:01:21;97017.47;;;12.01;97.06
16431;BME280;8325;49.284;7.238;2024-02-26T13:05:34;97011.19;;;11.84;95.27
16431;BME280;8325;49.284;7.238;2024-02-26T13:09:46;97027.53;;;11.97;98.38
16431;BME280;8325;49.284;7.238;2024-02-26T13:14:25;97028.84;;;11.88;97.11
16431;BME280;8325;49.284;7.238;2024-02-26T13:19:08;97030.22;;;11.72;96.44
16431;BME280;8325;49.284;7.238;2024-02-26T13:23:50;97041.94;;;11.70;96.72
16431;BME280;8325;49.284;7.238;2024-02-26T13:28:25;97039.97;;;11.65;96.51
16431;BME280;8325;49.284;7.238;2024-02-26T13:33:09;97040.38;;;11.44;97.04
16431;BME280;8325;49.284;7.238;2024-02-26T13:37:41;97046.47;;;11.38;99.08
16431;BME280;8325;49.284;7.238;2024-02-26T13:41:55;97060.09;;;11.21;100.00
16431;BME280;8325;49.284;7.238;2024-02-26T13:51:50;97065.75;;;10.87;100.00
16431;BME280;8325;49.284;7.238;2024-02-26T13:56:13;97062.81;;;10.76;100.00
16431;BME280;8325;49.284;7.238;2024-02-26T14:00:30;97075.13;;;10.69;100.00
16431;BME280;8325;49.284;7.238;2024-02-26T14:10:15;97069.41;;;10.54;100.00
16431;BME280;8325;49.284;7.238;2024-02-26T14:14:39;97075.59;;;10.53;100.00
16431;BME280;8325;49.284;7.238;2024-02-26T14:18:52;97078.03;;;10.54;100.00
16431;BME280;8325;49.284;7.238;2024-02-26T14:23:04;97080.41;;;10.56;100.00
16431;BME280;8325;49.284;7.238;2024-02-26T14:27:16;97073.97;;;10.58;100.00
16431;BME280;8325;49.284;7.238;2024-02-26T14:31:28;97078.22;;;10.59;100.00
16431;BME280;8325;49.284;7.238;2024-02-26T14:35:40;97094.66;;;10.60;100.00
16431;BME280;8325;49.284;7.238;2024-02-26T14:39:52;97091.91;;;10.48;100.00
16431;BME280;8325;49.284;7.238;2024-02-26T14:44:04;97098.13;;;10.54;100.00
16431;BME280;8325;49.284;7.238;2024-02-26T14:48:15;97104.56;;;10.51;100.00
16431;BME280;8325;49.284;7.238;2024-02-26T14:52:27;97108.97;;;10.51;100.00
16431;BME280;8325;49.284;7.238;2024-02-26T14:56:39;97112.78;;;10.48;100.00
16431;BME280;8325;49.284;7.238;2024-02-26T15:00:51;97112.75;;;10.55;100.00
16431;BME280;8325;49.284;7.238;2024-02-26T15:05:03;97109.97;;;10.56;100.00
16431;BME280;8325;49.284;7.238;2024-02-26T15:09:15;97102.31;;;10.55;100.00
16431;BME280;8325;49.284;7.238;2024-02-26T15:13:27;97115.91;;;10.70;100.00
16431;BME280;8325;49.284;7.238;2024-02-26T15:17:38;97113.38;;;10.89;100.00
16431;BME280;8325;49.284;7.238;2024-02-26T15:21:50;97108.47;;;10.99;100.00
16431;BME280;8325;49.284;7.238;2024-02-26T15:26:02;97114.97;;;10.90;100.00
16431;BME280;8325;49.284;7.238;2024-02-26T15:30:15;97127.09;;;10.77;100.00
16431;BME280;8325;49.284;7.238;2024-02-26T15:34:27;97125.53;;;10.70;100.00
16431;BME280;8325;49.284;7.238;2024-02-26T15:38:39;97127.00;;;10.59;100.00
16431;BME280;8325;49.284;7.238;2024-02-26T15:42:51;97126.69;;;10.80;100.00
16431;BME280;8325;49.284;7.238;2024-02-26T15:47:03;97143.59;;;10.78;100.00
16431;BME280;8325;49.284;7.238;2024-02-26T15:51:19;97152.03;;;10.73;100.00
16431;BME280;8325;49.284;7.238;2024-02-26T15:55:31;97148.00;;;10.77;100.00
16431;BME280;8325;49.284;7.238;2024-02-26T15:59:43;97158.28;;;10.72;100.00
16431;BME280;8325;49.284;7.238;2024-02-26T16:03:55;97164.16;;;10.61;100.00
16431;BME280;8325;49.284;7.238;2024-02-26T16:08:22;97173.22;;;10.52;100.00
16431;BME280;8325;49.284;7.238;2024-02-26T16:12:38;97176.09;;;10.44;100.00
16431;BME280;8325;49.284;7.238;2024-02-26T16:16:59;97182.13;;;10.38;100.00
16431;BME280;8325;49.284;7.238;2024-02-26T16:21:12;97183.53;;;10.33;100.00
16431;BME280;8325;49.284;7.238;2024-02-26T16:25:23;97183.56;;;10.27;100.00
16431;BME280;8325;49.284;7.238;2024-02-26T16:29:35;97194.38;;;10.30;100.00
16431;BME280;8325;49.284;7.238;2024-02-26T16:33:47;97203.22;;;10.23;100.00
16431;BME280;8325;49.284;7.238;2024-02-26T16:37:59;97209.25;;;10.03;100.00
16431;BME280;8325;49.284;7.238;2024-02-26T16:42:11;97209.66;;;9.94;100.00
16431;BME280;8325;49.284;7.238;2024-02-26T16:46:23;97230.75;;;9.85;100.00
16431;BME280;8325;49.284;7.238;2024-02-26T16:50:34;97236.16;;;9.71;100.00
16431;BME280;8325;49.284;7.238;2024-02-26T16:54:46;97240.38;;;9.65;100.00
16431;BME280;8325;49.284;7.238;2024-02-26T16:58:58;97250.56;;;9.53;100.00
16431;BME280;8325;49.284;7.238;2024-02-26T17:03:09;97260.38;;;9.31;100.00
16431;BME280;8325;49.284;7.238;2024-02-26T17:07:21;97269.59;;;9.27;100.00
16431;BME280;8325;49.284;7.238;2024-02-26T17:11:37;97274.97;;;9.19;100.00
16431;BME280;8325;49.284;7.238;2024-02-26T17:15:49;97288.41;;;9.22;100.00
16431;BME280;8325;49.284;7.238;2024-02-26T17:20:02;97308.94;;;8.97;100.00
16431;BME280;8325;49.284;7.238;2024-02-26T17:24:16;97312.56;;;8.96;100.00
16431;BME280;8325;49.284;7.238;2024-02-26T17:28:28;97323.34;;;8.93;100.00
16431;BME280;8325;49.284;7.238;2024-02-26T17:32:39;97343.78;;;8.90;100.00
16431;BME280;8325;49.284;7.238;2024-02-26T17:36:51;97346.53;;;8.82;100.00
16431;BME280;8325;49.284;7.238;2024-02-26T17:41:06;97353.69;;;8.73;100.00
16431;BME280;8325;49.284;7.238;2024-02-26T17:45:19;97357.88;;;8.74;100.00
16431;BME280;8325;49.284;7.238;2024-02-26T17:49:33;97369.94;;;8.75;100.00
16431;BME280;8325;49.284;7.238;2024-02-26T17:53:45;97379.09;;;8.71;100.00
16431;BME280;8325;49.284;7.238;2024-02-26T17:57:57;97386.88;;;8.64;100.00
16431;BME280;8325;49.284;7.238;2024-02-26T18:02:08;97392.41;;;8.55;100.00
16431;BME280;8325;49.284;7.238;2024-02-26T18:06:20;97396.97;;;8.52;100.00
16431;BME280;8325;49.284;7.238;2024-02-26T18:10:32;97404.78;;;8.52;100.00
16431;BME280;8325;49.284;7.238;2024-02-26T18:14:43;97408.41;;;8.51;100.00
16431;BME280;8325;49.284;7.238;2024-02-26T18:18:55;97414.19;;;8.47;100.00
16431;BME280;8325;49.284;7.238;2024-02-26T18:23:07;97425.13;;;8.42;100.00
16431;BME280;8325;49.284;7.238;2024-02-26T18:27:18;97425.34;;;8.41;100.00
16431;BME280;8325;49.284;7.238;2024-02-26T18:31:30;97435.25;;;8.37;100.00
16431;BME280;8325;49.284;7.238;2024-02-26T18:35:42;97439.59;;;8.30;100.00
16431;BME280;8325;49.284;7.238;2024-02-26T18:39:53;97440.09;;;8.19;100.00
16431;BME280;8325;49.284;7.238;2024-02-26T18:44:05;97457.06;;;8.15;100.00
16431;BME280;8325;49.284;7.238;2024-02-26T18:48:17;97481.28;;;8.15;100.00
16431;BME280;8325;49.284;7.238;2024-02-26T18:52:28;97472.41;;;8.10;100.00
16431;BME280;8325;49.284;7.238;2024-02-26T18:56:40;97480.94;;;8.03;100.00
16431;BME280;8325;49.284;7.238;2024-02-26T19:00:52;97481.94;;;8.02;100.00
16431;BME280;8325;49.284;7.238;2024-02-26T19:05:04;97486.00;;;8.05;100.00
16431;BME280;8325;49.284;7.238;2024-02-26T19:09:16;97500.59;;;8.06;100.00
16431;BME280;8325;49.284;7.238;2024-02-26T19:13:27;97494.84;;;8.11;100.00
16431;BME280;8325;49.284;7.238;2024-02-26T19:17:39;97496.38;;;8.05;100.00
16431;BME280;8325;49.284;7.238;2024-02-26T19:21:51;97507.22;;;8.08;100.00
16431;BME280;8325;49.284;7.238;2024-02-26T19:26:02;97500.97;;;8.03;100.00
16431;BME280;8325;49.284;7.238;2024-02-26T19:30:16;97510.56;;;8.02;100.00
16431;BME280;8325;49.284;7.238;2024-02-26T19:34:27;97532.47;;;7.93;100.00
16431;BME280;8325;49.284;7.238;2024-02-26T19:38:39;97527.25;;;7.93;100.00
16431;BME280;8325;49.284;7.238;2024-02-26T19:42:52;97538.28;;;7.95;100.00
16431;BME280;8325;49.284;7.238;2024-02-26T19:47:04;97548.25;;;7.92;100.00
16431;BME280;8325;49.284;7.238;2024-02-26T19:51:27;97551.00;;;7.90;100.00
16431;BME280;8325;49.284;7.238;2024-02-26T19:56:40;97567.69;;;7.81;100.00
16431;BME280;8325;49.284;7.238;2024-02-26T20:02:05;97578.09;;;7.81;100.00
16431;BME280;8325;49.284;7.238;2024-02-26T20:06:51;97589.28;;;7.81;100.00
16431;BME280;8325;49.284;7.238;2024-02-26T20:16:38;97602.28;;;7.81;100.00
16431;BME280;8325;49.284;7.238;2024-02-26T20:22:00;97612.25;;;7.78;100.00
16431;BME280;8325;49.284;7.238;2024-02-26T20:26:36;97612.00;;;7.73;100.00
16431;BME280;8325;49.284;7.238;2024-02-26T20:30:59;97617.91;;;7.67;100.00
16431;BME280;8325;49.284;7.238;2024-02-26T20:35:38;97619.16;;;7.71;100.00
16431;BME280;8325;49.284;7.238;2024-02-26T20:41:01;97628.81;;;7.62;100.00
16431;BME280;8325;49.284;7.238;2024-02-26T20:45:35;97633.75;;;7.57;100.00
16431;BME280;8325;49.284;7.238;2024-02-26T20:50:35;97633.38;;;7.60;100.00
16431;BME280;8325;49.284;7.238;2024-02-26T20:54:51;97636.97;;;7.59;100.00
16431;BME280;8325;49.284;7.238;2024-02-26T20:59:08;97647.56;;;7.57;100.00
16431;BME280;8325;49.284;7.238;2024-02-26T21:03:37;97650.16;;;7.57;100.00
16431;BME280;8325;49.284;7.238;2024-02-26T21:07:52;97644.31;;;7.55;100.00
16431;BME280;8325;49.284;7.238;2024-02-26T21:12:10;97659.38;;;7.60;100.00
16431;BME280;8325;49.284;7.238;2024-02-26T21:16:39;97665.75;;;7.57;100.00
16431;BME280;8325;49.284;7.238;2024-02-26T21:21:16;97673.25;;;7.52;100.00
16431;BME280;8325;49.284;7.238;2024-02-26T21:25:51;97686.25;;;7.52;100.00
16431;BME280;8325;49.284;7.238;2024-02-26T21:30:05;97687.59;;;7.48;100.00
16431;BME280;8325;49.284;7.238;2024-02-26T21:34:18;97697.63;;;7.51;100.00
16431;BME280;8325;49.284;7.238;2024-02-26T21:38:30;97706.41;;;7.50;100.00
16431;BME280;8325;49.284;7.238;2024-02-26T21:42:59;97703.88;;;7.42;100.00
16431;BME280;8325;49.284;7.238;2024-02-26T21:47:20;97709.78;;;7.36;100.00
16431;BME280;8325;49.284;7.238;2024-02-26T21:51:50;97726.06;;;7.30;100.00
16431;BME280;8325;49.284;7.238;2024-02-26T21:56:23;97722.81;;;7.28;100.00
16431;BME280;8325;49.284;7.238;2024-02-26T22:00:53;97730.66;;;7.20;100.00
16431;BME280;8325;49.284;7.238;2024-02-26T22:05:15;97732.97;;;7.14;100.00
16431;BME280;8325;49.284;7.238;2024-02-26T22:09:32;97743.38;;;7.14;100.00
16431;BME280;8325;49.284;7.238;2024-02-26T22:13:51;97755.84;;;7.11;100.00
16431;BME280;8325;49.284;7.238;2024-02-26T22:18:03;97760.78;;;7.06;100.00
16431;BME280;8325;49.284;7.238;2024-02-26T22:22:15;97767.09;;;7.03;100.00
16431;BME280;8325;49.284;7.238;2024-02-26T22:26:26;97769.47;;;6.90;100.00
